Time;durP1;ratioP1;P1;durP2;ratioP2;P2;SDS_P1;SDS_P2;PMS_P1;PMS_P2;Temp;Humidity;BMP_temperature;BMP_pressure;BME280_temperature;BME280_humidity;BME280_pressure;Samples;Min_cycle;Max_cycle;Signal;HPM_P1;HPM_P2
2022/08/25 00:01:39;;;;;;;10.60;6.80;;;19.90;99.90;;;;;;5092235;28;20388;-82
2022/08/25 00:04:23;;;;;;;9.57;6.93;;;19.30;99.90;;;;;;5091132;28;20035;-83
2022/08/25 00:07:07;;;;;;;10.55;7.20;;;19.80;99.90;;;;;;5091416;28;20043;-83
2022/08/25 00:09:52;;;;;;;9.23;7.13;;;;;;;;;;5070176;28;20039;-83
2022/08/25 00:12:36;;;;;;;10.68;6.97;;;19.80;99.90;;;;;;5072244;28;20537;-83
2022/08/25 00:15:21;;;;;;;8.43;6.97;;;19.90;99.90;;;;;;5075329;28;20090;-83
2022/08/25 00:18:05;;;;;;;9.27;6.28;;;19.70;99.90;;;;;;5074378;28;20036;-83
2022/08/25 00:20:50;;;;;;;10.35;7.20;;;19.90;99.90;;;;;;5075793;28;20054;-82
2022/08/25 00:23:34;;;;;;;9.07;7.05;;;;;;;;;;5075238;28;20388;-83
2022/08/25 00:26:20;;;;;;;14.07;7.22;;;19.80;99.90;;;;;;5075179;28;20455;-83
2022/08/25 00:29:04;;;;;;;10.77;6.70;;;19.70;99.90;;;;;;5074136;28;20047;-83
2022/08/25 00:31:48;;;;;;;11.88;6.60;;;20.20;99.90;;;;;;5074765;28;20156;-83
2022/08/25 00:34:36;;;;;;;9.77;7.38;;;19.70;99.90;;;;;;5074954;28;20420;-83
2022/08/25 00:37:20;;;;;;;13.95;7.25;;;19.60;99.90;;;;;;5074439;28;20395;-84
2022/08/25 00:40:06;;;;;;;12.93;7.13;;;19.80;99.90;;;;;;5063391;28;20086;-82
2022/08/25 00:42:50;;;;;;;8.85;6.40;;;19.70;99.90;;;;;;5074881;28;20090;-83
2022/08/25 00:45:35;;;;;;;8.18;6.32;;;19.60;99.90;;;;;;5074935;28;20412;-83
2022/08/25 00:48:19;;;;;;;7.47;6.72;;;19.50;99.90;;;;;;5072830;28;20093;-82
2022/08/25 00:51:04;;;;;;;11.32;6.47;;;19.60;99.90;;;;;;5093895;28;20051;-83
2022/08/25 00:53:50;;;;;;;9.95;6.07;;;19.50;99.90;;;;;;5080567;28;20047;-83
2022/08/25 00:56:34;;;;;;;12.77;6.65;;;;;;;;;;5082498;28;20040;-82
2022/08/25 00:59:21;;;;;;;10.95;6.72;;;19.70;99.90;;;;;;5075596;28;20548;-83
2022/08/25 01:02:06;;;;;;;9.57;6.38;;;19.40;99.90;;;;;;5091140;28;20395;-82
2022/08/25 01:04:51;;;;;;;10.52;5.70;;;19.50;99.90;;;;;;5079735;28;20035;-82
2022/08/25 01:07:36;;;;;;;15.05;6.10;;;19.80;99.90;;;;;;5074120;28;20044;-82
2022/08/25 01:10:22;;;;;;;8.32;6.18;;;19.50;99.90;;;;;;5088571;28;20047;-82
2022/08/25 01:13:19;;;;;;;10.88;6.38;;;19.50;99.90;;;;;;5093355;28;20071;-83
2022/08/25 01:16:03;;;;;;;8.98;5.75;;;;;;;;;;5060491;28;20495;-85
2022/08/25 01:18:55;;;;;;;9.65;5.80;;;19.60;99.90;;;;;;5089608;28;20130;-82
2022/08/25 01:21:43;;;;;;;9.65;5.60;;;19.10;99.90;;;;;;5094934;28;20035;-82
2022/08/25 01:24:39;;;;;;;8.93;5.65;;;19.30;99.90;;;;;;5073035;28;20120;-82
2022/08/25 01:27:24;;;;;;;10.45;5.97;;;;;;;;;;5076165;28;20612;-82
2022/08/25 01:30:09;;;;;;;7.75;5.45;;;19.30;99.90;;;;;;5094082;28;20102;-83
2022/08/25 01:32:53;;;;;;;8.45;4.95;;;;;;;;;;5094676;28;20400;-82
2022/08/25 01:35:39;;;;;;;7.00;4.68;;;18.80;99.90;;;;;;5094752;28;20081;-82
2022/08/25 01:38:24;;;;;;;6.35;5.05;;;;;;;;;;5084432;28;20102;-82
2022/08/25 01:41:08;;;;;;;6.57;4.97;;;;;;;;;;5094012;28;20086;-83
2022/08/25 01:43:53;;;;;;;8.70;4.72;;;;;;;;;;5093277;28;20442;-82
2022/08/25 01:46:37;;;;;;;8.63;4.70;;;19.20;99.90;;;;;;5093960;28;20043;-83
2022/08/25 01:49:21;;;;;;;7.15;4.45;;;18.50;99.90;;;;;;5068849;28;20043;-83
2022/08/25 01:52:19;;;;;;;8.10;4.53;;;19.10;99.90;;;;;;5093871;28;20058;-84
2022/08/25 01:55:04;;;;;;;5.82;4.50;;;19.10;99.90;;;;;;5094149;28;20090;-83
2022/08/25 01:57:49;;;;;;;5.43;4.38;;;;;;;;;;5094227;28;20039;-82
2022/08/25 02:00:33;;;;;;;9.15;4.65;;;18.90;99.90;;;;;;5093683;28;20043;-82
2022/08/25 02:03:18;;;;;;;7.85;4.38;;;19.10;99.90;;;;;;5069066;28;20048;-82
2022/08/25 02:06:03;;;;;;;12.18;4.93;;;18.70;99.90;;;;;;5072695;28;20099;-83
2022/08/25 02:08:52;;;;;;;7.82;4.55;;;19.40;99.90;;;;;;5073563;28;20086;-82
2022/08/25 02:11:40;;;;;;;8.10;4.47;;;18.90;99.90;;;;;;5073512;28;20027;-82
2022/08/25 02:14:25;;;;;;;6.32;4.10;;;18.20;99.90;;;;;;5059407;28;20043;-82
2022/08/25 02:17:10;;;;;;;9.30;4.47;;;;;;;;;;5073277;28;20070;-84
2022/08/25 02:19:55;;;;;;;6.28;4.00;;;18.80;99.90;;;;;;5072449;28;20044;-82
2022/08/25 02:22:40;;;;;;;8.45;4.10;;;18.70;99.90;;;;;;5073131;28;20121;-82
2022/08/25 02:25:24;;;;;;;7.03;4.20;;;18.80;99.90;;;;;;5081588;28;20093;-82
2022/08/25 02:28:09;;;;;;;6.20;4.30;;;;;;;;;;5093344;28;20034;-82
2022/08/25 02:30:53;;;;;;;8.00;4.22;;;18.70;99.90;;;;;;5072206;28;20066;-83
2022/08/25 02:33:37;;;;;;;8.75;3.90;;;18.70;99.90;;;;;;5072709;28;20051;-82
2022/08/25 02:36:22;;;;;;;7.50;3.97;;;18.50;99.90;;;;;;5072123;28;20036;-82
2022/08/25 02:39:07;;;;;;;8.20;3.88;;;18.40;99.90;;;;;;5073278;28;20562;-82
2022/08/25 02:41:52;;;;;;;5.55;3.70;;;18.50;99.90;;;;;;5059802;28;20035;-82
2022/08/25 02:44:36;;;;;;;11.07;4.70;;;18.40;99.90;;;;;;5071402;28;20527;-82
2022/08/25 02:47:21;;;;;;;5.75;3.60;;;18.50;99.90;;;;;;5072262;28;20035;-82
2022/08/25 02:50:06;;;;;;;7.22;3.78;;;18.40;99.90;;;;;;5072841;28;20035;-82
2022/08/25 02:52:51;;;;;;;8.80;3.85;;;18.40;99.90;;;;;;5073006;28;20079;-82
2022/08/25 02:55:35;;;;;;;5.72;3.53;;;18.70;99.90;;;;;;5059980;28;20047;-82
2022/08/25 02:58:20;;;;;;;7.88;4.00;;;18.30;99.90;;;;;;5072128;28;20079;-82
2022/08/25 03:01:06;;;;;;;7.38;3.45;;;18.30;99.90;;;;;;5071497;28;20036;-82
2022/08/25 03:03:51;;;;;;;7.30;3.80;;;18.40;99.90;;;;;;5072533;28;20047;-83
2022/08/25 03:06:35;;;;;;;4.57;3.63;;;;;;;;;;5071828;28;20495;-84
2022/08/25 03:09:20;;;;;;;7.13;4.18;;;18.30;99.90;;;;;;5072037;28;20431;-83
2022/08/25 03:12:04;;;;;;;8.50;4.07;;;18.30;99.90;;;;;;5072351;28;20051;-82
2022/08/25 03:14:48;;;;;;;8.88;4.10;;;18.30;99.90;;;;;;5071492;28;20550;-82
2022/08/25 03:17:34;;;;;;;9.57;3.92;;;18.20;99.90;;;;;;5058704;28;20072;-82
2022/08/25 03:20:19;;;;;;;9.13;3.78;;;18.20;99.90;;;;;;5072024;28;20514;-84
2022/08/25 03:23:04;;;;;;;7.72;3.85;;;18.20;99.90;;;;;;5071422;28;20043;-82
2022/08/25 03:28:54;;;;;;;6.38;3.63;;;;;;;;;;5083553;28;20039;-82
2022/08/25 03:31:38;;;;;;;6.80;4.25;;;18.20;99.90;;;;;;5089925;28;20039;-82
2022/08/25 03:34:23;;;;;;;6.20;4.07;;;18.00;99.90;;;;;;5091917;28;20061;-82
2022/08/25 03:37:07;;;;;;;6.50;3.97;;;17.90;99.90;;;;;;5092427;28;20494;-82
2022/08/25 03:39:51;;;;;;;6.20;3.90;;;18.20;99.90;;;;;;5092161;28;20043;-83
2022/08/25 03:42:40;;;;;;;6.50;3.67;;;17.40;99.90;;;;;;5091870;28;20035;-82
2022/08/25 03:45:24;;;;;;;5.45;3.78;;;17.80;99.90;;;;;;5090645;28;20089;-82
2022/08/25 03:48:09;;;;;;;8.05;3.63;;;18.00;99.90;;;;;;5091715;28;20119;-82
2022/08/25 03:50:53;;;;;;;8.75;4.57;;;18.00;99.90;;;;;;5092241;28;20055;-82
2022/08/25 03:53:38;;;;;;;11.43;4.47;;;17.80;99.90;;;;;;5083871;28;20124;-82
2022/08/25 03:56:22;;;;;;;6.10;3.80;;;;;;;;;;5057966;28;20396;-84
2022/08/25 03:59:09;;;;;;;6.53;4.22;;;17.70;99.90;;;;;;5071074;28;20143;-82
2022/08/25 04:01:54;;;;;;;5.13;3.80;;;18.00;99.90;;;;;;5072052;28;20170;-83
2022/08/25 04:04:39;;;;;;;8.68;4.03;;;17.70;99.90;;;;;;5071203;28;20109;-82
2022/08/25 04:07:24;;;;;;;7.65;3.83;;;;;;;;;;5071928;28;20098;-84
2022/08/25 04:10:10;;;;;;;11.32;4.38;;;18.00;99.90;;;;;;5071816;28;20032;-82
2022/08/25 04:12:54;;;;;;;7.97;4.22;;;17.60;99.90;;;;;;5071891;28;20059;-83
2022/08/25 04:15:42;;;;;;;10.70;4.32;;;17.60;99.90;;;;;;5071360;28;20480;-82
2022/08/25 04:18:26;;;;;;;8.75;3.90;;;;;;;;;;5071148;28;20086;-84
2022/08/25 04:21:11;;;;;;;5.57;4.15;;;17.70;99.90;;;;;;5071833;28;20409;-81
2022/08/25 04:23:56;;;;;;;9.25;4.97;;;17.60;99.90;;;;;;5058720;28;20043;-82
2022/08/25 04:26:44;;;;;;;5.85;3.90;;;17.70;99.90;;;;;;5090651;28;20531;-82
2022/08/25 04:29:29;;;;;;;8.90;4.57;;;;;;;;;;5091253;28;20085;-85
2022/08/25 04:32:13;;;;;;;7.35;3.65;;;17.70;99.90;;;;;;5087705;28;20086;-82
2022/08/25 04:34:58;;;;;;;8.43;4.50;;;17.80;99.90;;;;;;5089033;28;20074;-82
2022/08/25 04:37:42;;;;;;;8.18;4.35;;;17.40;99.90;;;;;;5090327;28;20047;-82
2022/08/25 04:40:27;;;;;;;6.53;4.20;;;17.50;99.90;;;;;;5090933;28;20124;-82
2022/08/25 04:43:11;;;;;;;7.65;4.20;;;17.60;99.90;;;;;;5091538;28;20086;-82
2022/08/25 04:45:56;;;;;;;10.95;4.28;;;17.50;99.90;;;;;;5082934;28;20068;-82
2022/08/25 04:48:40;;;;;;;8.48;4.10;;;17.60;99.90;;;;;;5089552;28;20047;-82
2022/08/25 04:51:30;;;;;;;11.75;4.45;;;17.60;99.90;;;;;;5079844;28;20075;-83
2022/08/25 04:54:20;;;;;;;8.82;4.22;;;17.60;99.90;;;;;;5066486;28;20060;-82
2022/08/25 04:57:05;;;;;;;7.78;4.10;;;17.90;99.90;;;;;;5070336;28;20044;-81
2022/08/25 04:59:50;;;;;;;8.80;4.03;;;17.60;99.90;;;;;;5066920;28;20334;-81
2022/08/25 05:02:34;;;;;;;11.65;4.20;;;;;;;;;;5071072;28;20039;-83
2022/08/25 05:05:18;;;;;;;10.68;4.18;;;17.70;99.90;;;;;;5072566;28;20082;-82
2022/08/25 05:08:04;;;;;;;8.93;4.40;;;17.70;99.90;;;;;;5074836;28;20041;-82
2022/08/25 05:10:49;;;;;;;8.75;5.25;;;17.60;99.90;;;;;;5072865;28;20074;-81
2022/08/25 05:13:34;;;;;;;8.00;4.07;;;;;;;;;;5074245;28;20495;-84
2022/08/25 05:16:20;;;;;;;6.82;4.07;;;17.90;99.90;;;;;;5073690;28;20044;-82
2022/08/25 05:19:04;;;;;;;9.50;4.38;;;17.50;99.90;;;;;;5074436;28;20028;-82
2022/08/25 05:21:49;;;;;;;9.30;4.35;;;17.90;99.90;;;;;;5074163;28;20046;-82
2022/08/25 05:24:33;;;;;;;7.63;4.30;;;;;;;;;;5075635;28;20044;-84
2022/08/25 05:27:18;;;;;;;8.00;4.68;;;;;;;;;;5087473;28;20082;-82
2022/08/25 05:30:02;;;;;;;8.88;4.63;;;17.90;99.90;;;;;;5074413;28;20055;-82
2022/08/25 05:32:47;;;;;;;7.22;4.18;;;18.10;99.90;;;;;;5073817;28;20095;-81
2022/08/25 05:35:31;;;;;;;8.23;4.35;;;18.00;99.90;;;;;;5073416;28;20047;-82
2022/08/25 05:38:15;;;;;;;6.47;4.32;;;18.10;99.90;;;;;;5073067;28;20052;-81
2022/08/25 05:41:05;;;;;;;5.60;4.00;;;18.20;99.90;;;;;;5073409;28;20032;-82
2022/08/25 05:43:49;;;;;;;6.78;4.57;;;18.20;99.90;;;;;;5073773;28;20533;-81
2022/08/25 05:46:33;;;;;;;7.18;4.50;;;18.30;99.90;;;;;;5073916;28;20117;-82
2022/08/25 05:49:18;;;;;;;9.32;4.82;;;18.60;99.90;;;;;;5065081;28;20063;-82
2022/08/25 05:52:02;;;;;;;9.43;4.40;;;18.50;99.90;;;;;;5073446;28;20035;-82
2022/08/25 05:54:47;;;;;;;7.90;4.35;;;;;;;;;;5072014;28;20167;-83
2022/08/25 05:57:32;;;;;;;6.80;3.97;;;18.40;99.90;;;;;;5073944;28;20404;-82
2022/08/25 06:00:17;;;;;;;10.07;4.30;;;18.60;99.90;;;;;;5073423;28;20124;-82
2022/08/25 06:03:01;;;;;;;10.27;4.38;;;18.70;99.90;;;;;;5072854;28;20218;-82
2022/08/25 06:05:46;;;;;;;9.95;4.18;;;18.90;99.90;;;;;;5071757;28;20119;-82
2022/08/25 06:08:32;;;;;;;13.45;4.85;;;18.90;99.90;;;;;;5072005;28;20086;-82
2022/08/25 06:11:18;;;;;;;8.07;4.25;;;19.00;99.90;;;;;;5070358;28;20405;-84
2022/08/25 06:14:03;;;;;;;8.20;3.97;;;19.10;99.90;;;;;;5072556;28;20047;-82
2022/08/25 06:16:50;;;;;;;7.45;3.85;;;19.20;99.90;;;;;;5072467;28;20036;-83
2022/08/25 06:19:34;;;;;;;9.30;4.15;;;19.40;99.90;;;;;;5073082;28;20038;-83
2022/08/25 06:22:20;;;;;;;5.55;4.10;;;;;;;;;;5071821;28;20082;-82
2022/08/25 06:25:04;;;;;;;7.75;4.40;;;;;;;;;;5074526;28;20496;-82
2022/08/25 06:27:49;;;;;;;6.55;4.13;;;;;;;;;;5072183;28;20039;-82
2022/08/25 06:30:35;;;;;;;11.57;4.30;;;;;;;;;;5071823;28;20040;-83
2022/08/25 06:33:19;;;;;;;10.50;3.67;;;;;;;;;;5071464;28;20044;-82
2022/08/25 06:36:04;;;;;;;10.60;4.40;;;;;;;;;;5071597;28;20139;-83
2022/08/25 06:38:48;;;;;;;6.90;3.72;;;;;;;;;;5072469;28;20089;-83
2022/08/25 06:41:33;;;;;;;7.60;3.70;;;;;;;;;;5069896;28;20039;-82
2022/08/25 06:44:18;;;;;;;7.97;3.95;;;;;;;;;;5072636;28;20040;-82
2022/08/25 06:47:02;;;;;;;6.22;3.53;;;;;;;;;;5063639;28;20043;-83
2022/08/25 06:49:47;;;;;;;9.35;3.83;;;;;;;;;;5072209;28;20551;-84
2022/08/25 06:52:31;;;;;;;8.77;3.92;;;;;;;;;;5072759;28;20158;-83
2022/08/25 06:55:16;;;;;;;8.02;3.53;;;;;;;;;;5071346;28;20039;-82
2022/08/25 06:58:02;;;;;;;7.68;4.20;;;;;;;;;;5071541;28;20101;-82
2022/08/25 07:00:46;;;;;;;10.30;3.65;;;;;;;;;;5071986;28;20085;-85
2022/08/25 07:03:31;;;;;;;7.15;3.80;;;;;;;;;;5071508;28;20042;-82
2022/08/25 07:06:17;;;;;;;10.25;3.83;;;;;;;;;;5071491;28;20098;-84
2022/08/25 07:09:03;;;;;;;8.73;3.15;;;;;;;;;;5071677;28;20063;-84
2022/08/25 07:11:48;;;;;;;6.22;3.05;;;;;;;;;;5072016;28;20051;-86
2022/08/25 07:14:32;;;;;;;6.20;3.72;;;;;;;;;;5065763;28;20055;-85
2022/08/25 07:17:18;;;;;;;7.60;3.20;;;;;;;;;;5068905;28;20085;-86
2022/08/25 07:20:02;;;;;;;5.70;3.42;;;23.70;99.90;;;;;;5071143;28;20061;-85
2022/08/25 07:22:47;;;;;;;8.05;3.65;;;;;;;;;;5072216;28;20047;-85
2022/08/25 07:25:33;;;;;;;7.22;3.30;;;25.50;99.90;;;;;;5082402;28;20123;-85
2022/08/25 07:28:18;;;;;;;7.43;3.17;;;;;;;;;;5088646;28;20106;-86
2022/08/25 07:31:02;;;;;;;8.02;3.38;;;;;;;;;;5085331;28;20048;-85
2022/08/25 07:36:50;;;;;;;7.38;3.17;;;;;;;;;;5071916;28;20102;-87
2022/08/25 07:39:35;;;;;;;5.75;3.72;;;;;;;;;;5072596;28;20087;-84
2022/08/25 07:42:19;;;;;;;7.55;3.88;;;;;;;;;;5072386;28;20039;-87
2022/08/25 07:45:05;;;;;;;8.00;3.50;;;27.80;99.70;;;;;;5071340;28;20111;-85
2022/08/25 07:47:52;;;;;;;8.60;3.40;;;;;;;;;;5072209;28;20043;-85
2022/08/25 07:50:41;;;;;;;8.63;3.58;;;27.70;92.70;;;;;;5070867;28;20032;-84
2022/08/25 07:53:25;;;;;;;8.43;4.25;;;;;;;;;;5072062;28;20120;-85
2022/08/25 07:56:15;;;;;;;5.80;2.90;;;27.80;92.90;;;;;;5061409;28;20051;-85
2022/08/25 07:59:00;;;;;;;5.70;3.40;;;;;;;;;;5070829;28;20090;-85
2022/08/25 08:01:45;;;;;;;7.93;3.30;;;;;;;;;;5072016;28;20078;-86
2022/08/25 08:04:30;;;;;;;6.10;3.55;;;;;;;;;;5069914;28;20046;-83
2022/08/25 08:07:17;;;;;;;9.45;3.80;;;29.20;90.20;;;;;;5073604;28;20107;-82
2022/08/25 08:10:04;;;;;;;6.65;3.53;;;28.90;89.20;;;;;;5071385;28;20090;-84
2022/08/25 08:12:49;;;;;;;7.10;3.70;;;;;;;;;;5071978;28;20550;-83
2022/08/25 08:15:34;;;;;;;6.90;3.55;;;;;;;;;;5071610;28;20098;-84
2022/08/25 08:18:19;;;;;;;5.72;3.40;;;;;;;;;;5070081;28;20090;-83
2022/08/25 08:21:04;;;;;;;9.55;4.25;;;;;;;;;;5069826;28;20081;-84
2022/08/25 08:23:50;;;;;;;5.88;3.58;;;28.90;90.10;;;;;;5071827;28;20491;-84
2022/08/25 08:26:34;;;;;;;9.18;3.35;;;;;;;;;;5088330;28;20495;-83
2022/08/25 08:29:21;;;;;;;9.95;3.28;;;;;;;;;;5090549;28;20949;-84
2022/08/25 08:32:08;;;;;;;11.23;3.50;;;29.20;92.90;;;;;;5078162;28;20059;-83
2022/08/25 08:34:53;;;;;;;9.77;3.22;;;;;;;;;;5072129;28;20094;-83
2022/08/25 08:37:40;;;;;;;7.90;3.15;;;;;;;;;;5074801;28;20051;-84
2022/08/25 08:40:25;;;;;;;6.32;3.22;;;;;;;;;;5072809;28;20036;-83
2022/08/25 08:43:17;;;;;;;6.35;2.92;;;28.80;87.10;;;;;;5073789;28;20119;-83
2022/08/25 08:46:02;;;;;;;8.85;2.83;;;28.90;86.60;;;;;;5072368;28;20435;-85
2022/08/25 08:48:47;;;;;;;5.22;2.65;;;;;;;;;;5074725;28;20039;-83
2022/08/25 08:51:48;;;;;;;5.38;2.97;;;29.10;86.60;;;;;;5081691;28;20036;-84
2022/08/25 08:54:38;;;;;;;3.88;2.88;;;29.20;84.40;;;;;;5073756;28;20102;-86
2022/08/25 08:57:25;;;;;;;7.93;2.97;;;29.30;84.00;;;;;;5074093;28;20806;-87
2022/08/25 09:00:10;;;;;;;6.03;2.55;;;30.00;93.70;;;;;;5074524;28;20031;-83
2022/08/25 09:03:05;;;;;;;8.98;2.65;;;28.80;93.90;;;;;;5073551;28;20040;-83
2022/08/25 09:05:53;;;;;;;7.38;2.70;;;29.60;81.10;;;;;;5074709;28;20094;-83
2022/08/25 09:08:43;;;;;;;5.22;2.90;;;29.70;79.60;;;;;;5072128;28;20553;-83
2022/08/25 09:11:34;;;;;;;6.32;2.28;;;29.90;77.70;;;;;;5072758;28;20034;-83
2022/08/25 09:14:40;;;;;;;12.60;2.95;;;30.20;77.30;;;;;;5073586;28;20036;-84
2022/08/25 09:17:39;;;;;;;5.72;2.63;;;30.30;90.00;;;;;;5072572;28;20085;-83
2022/08/25 09:20:45;;;;;;;5.90;2.60;;;30.30;73.90;;;;;;5069051;28;20039;-84
2022/08/25 09:23:55;;;;;;;5.55;2.75;;;30.30;72.70;;;;;;5072945;28;20038;-85
2022/08/25 09:27:32;;;;;;;6.90;2.17;;;;;;;;;;5102967;27;1946734;-83
2022/08/25 09:30:18;;;;;;;5.05;2.60;;;30.50;70.00;;;;;;5135498;27;20042;-85
2022/08/25 09:33:03;;;;;;;8.85;3.10;;;;;;;;;;5132086;27;20033;-82
2022/08/25 09:35:49;;;;;;;4.40;2.10;;;;;;;;;;5135372;27;20480;-83
2022/08/25 09:38:33;;;;;;;8.35;2.45;;;;;;;;;;5144898;27;20038;-84
2022/08/25 09:41:35;;;;;;;7.03;2.30;;;;;;;;;;5143770;27;20086;-85
2022/08/25 09:44:40;;;;;;;6.15;2.15;;;;;;;;;;5138210;27;20407;-84
2022/08/25 09:47:29;;;;;;;6.57;2.70;;;;;;;;;;5150887;27;20535;-84
2022/08/25 09:50:17;;;;;;;7.07;1.98;;;31.30;63.70;;;;;;5153155;27;20034;-83
2022/08/25 09:53:16;;;;;;;7.80;2.42;;;;;;;;;;5153718;27;20034;-83
2022/08/25 09:56:06;;;;;;;3.65;1.88;;;;;;;;;;5147571;27;20037;-85
2022/08/25 09:58:50;;;;;;;7.75;1.85;;;31.50;62.30;;;;;;5161197;27;20394;-81
2022/08/25 10:01:48;;;;;;;6.72;2.38;;;31.50;62.10;;;;;;5150215;27;20037;-82
2022/08/25 10:04:37;;;;;;;6.70;2.40;;;31.20;67.60;;;;;;5151775;27;20033;-83
2022/08/25 10:07:34;;;;;;;4.57;2.22;;;31.60;60.90;;;;;;5160686;27;20038;-82
2022/08/25 10:10:27;;;;;;;6.57;2.50;;;31.60;59.90;;;;;;5162514;27;20041;-83
2022/08/25 10:13:22;;;;;;;5.55;2.20;;;31.70;61.40;;;;;;5167700;27;20045;-83
2022/08/25 10:16:12;;;;;;;5.25;2.58;;;;;;;;;;5151915;27;20098;-84
2022/08/25 10:19:06;;;;;;;5.18;2.30;;;;;;;;;;5164354;27;20091;-82
2022/08/25 10:22:10;;;;;;;4.35;2.05;;;;;;;;;;5148147;27;20069;-82
2022/08/25 10:24:54;;;;;;;;;;;32.00;71.70;;;;;;5159366;27;20029;-85
2022/08/25 10:27:47;;;;;;;3.30;2.13;;;;;;;;;;5123124;28;20305;-84
2022/08/25 10:30:40;;;;;;;4.95;2.00;;;32.60;71.10;;;;;;5124445;27;20080;-84
2022/08/25 10:33:50;;;;;;;10.18;4.25;;;32.00;57.80;;;;;;5124759;28;20452;-84
2022/08/25 10:36:40;;;;;;;3.53;2.13;;;;;;;;;;5123586;28;20057;-88
2022/08/25 10:39:25;;;;;;;7.10;2.00;;;;;;;;;;5084458;28;20487;-83
2022/08/25 10:42:19;;;;;;;4.65;1.98;;;;;;;;;;5080414;28;20031;-84
2022/08/25 10:48:11;;;;;;;;;;;32.20;54.30;;;;;;5094065;28;20089;-85
2022/08/25 10:51:07;;;;;;;3.58;1.90;;;;;;;;;;5089265;28;19915;-85
2022/08/25 10:53:55;;;;;;;4.97;2.20;;;;;;;;;;5081323;28;20487;-86
2022/08/25 10:56:45;;;;;;;4.38;2.20;;;;;;;;;;5112832;28;20042;-87
2022/08/25 10:59:30;;;;;;;5.55;2.00;;;;;;;;;;5100274;28;20034;-86
2022/08/25 11:02:23;;;;;;;4.50;2.13;;;32.20;62.50;;;;;;5094429;28;20082;-84
2022/08/25 11:05:16;;;;;;;8.57;2.53;;;32.30;51.10;;;;;;5099351;28;20035;-85
2022/08/25 11:08:09;;;;;;;10.88;2.60;;;32.40;52.40;;;;;;5113273;28;20495;-85
2022/08/25 11:11:01;;;;;;;5.25;2.08;;;33.10;63.20;;;;;;5094439;28;20415;-86
2022/08/25 11:13:58;;;;;;;5.10;2.35;;;32.70;51.70;;;;;;5088034;28;20059;-86
2022/08/25 11:17:06;;;;;;;5.07;2.17;;;33.60;66.20;;;;;;5106711;28;20042;-88
2022/08/25 11:19:56;;;;;;;4.40;2.17;;;32.80;50.70;;;;;;5112673;28;20034;-86
2022/08/25 11:22:51;;;;;;;4.88;2.03;;;;;;;;;;5102160;28;20027;-87
2022/08/25 11:25:43;;;;;;;4.68;2.25;;;;;;;;;;5118861;27;20053;-89
2022/08/25 11:28:56;;;;;;;4.60;2.13;;;33.10;52.00;;;;;;5135271;27;20066;-86
2022/08/25 11:31:49;;;;;;;5.63;2.17;;;33.10;50.70;;;;;;5135734;27;20339;-86
2022/08/25 11:34:35;;;;;;;5.38;2.45;;;;;;;;;;5146942;27;20075;-86
2022/08/25 11:37:24;;;;;;;4.60;2.58;;;33.20;49.60;;;;;;5129777;27;20195;-85
2022/08/25 11:40:37;;;;;;;5.63;2.00;;;33.50;61.20;;;;;;5122823;27;20089;-87
2022/08/25 11:43:24;;;;;;;8.77;2.30;;;33.20;59.20;;;;;;5125825;27;20116;-87
2022/08/25 11:46:08;;;;;;;5.07;2.10;;;;;;;;;;5124817;27;20046;-86
2022/08/25 11:49:24;;;;;;;4.78;2.40;;;33.40;49.90;;;;;;5123515;27;20103;-87
2022/08/25 11:52:28;;;;;;;6.43;2.30;;;;;;;;;;5132989;27;20126;-86
2022/08/25 11:55:22;;;;;;;7.72;2.75;;;;;;;;;;5117026;27;20047;-86
2022/08/25 11:58:28;;;;;;;7.25;2.10;;;;;;;;;;5116878;27;20038;-86
2022/08/25 12:01:38;;;;;;;6.15;2.30;;;32.50;68.00;;;;;;5128514;27;20466;-86
2022/08/25 12:04:40;;;;;;;6.88;2.58;;;33.00;55.30;;;;;;5127358;27;20039;-85
2022/08/25 12:07:44;;;;;;;5.10;2.65;;;33.50;48.50;;;;;;5112900;27;20042;-86
2022/08/25 12:10:59;;;;;;;4.38;2.30;;;33.50;49.50;;;;;;5117041;27;20502;-86
2022/08/25 12:13:43;;;;;;;5.50;2.40;;;;;;;;;;5119738;27;20079;-86
2022/08/25 12:16:41;;;;;;;4.90;2.13;;;33.60;48.60;;;;;;5120444;27;20051;-86
2022/08/25 12:19:34;;;;;;;3.47;2.13;;;33.60;47.40;;;;;;5129079;27;20034;-82
2022/08/25 12:22:20;;;;;;;4.53;2.03;;;;;;;;;;5120093;27;20042;-86
2022/08/25 12:25:23;;;;;;;8.10;2.30;;;33.10;48.20;;;;;;5118581;27;20079;-86
2022/08/25 12:28:32;;;;;;;3.55;2.08;;;33.80;49.30;;;;;;5134188;27;20095;-87
2022/08/25 12:32:01;;;;;;;3.97;2.40;;;33.20;48.40;;;;;;5133416;27;20152;-85
2022/08/25 12:35:12;;;;;;;5.72;2.10;;;33.60;48.10;;;;;;5120200;27;20080;-86
2022/08/25 12:38:01;;;;;;;5.00;2.22;;;34.40;48.80;;;;;;5148385;27;20118;-87
2022/08/25 12:40:46;;;;;;;4.28;2.25;;;;;;;;;;5121156;27;20145;-85
2022/08/25 12:43:34;;;;;;;6.68;2.40;;;34.10;46.80;;;;;;5128993;27;20168;-86
2022/08/25 12:46:25;;;;;;;3.67;2.17;;;34.50;48.00;;;;;;5143352;27;20489;-84
2022/08/25 12:49:31;;;;;;;4.85;2.20;;;34.10;47.30;;;;;;5135213;27;20058;-85
2022/08/25 12:52:19;;;;;;;7.47;2.55;;;34.10;46.80;;;;;;5150333;27;20065;-85
2022/08/25 12:55:05;;;;;;;5.43;2.40;;;34.00;47.80;;;;;;5137061;27;20374;-87
2022/08/25 12:57:57;;;;;;;4.72;2.10;;;34.10;45.80;;;;;;5144790;27;20115;-86
2022/08/25 13:00:57;;;;;;;3.67;1.95;;;33.80;46.00;;;;;;5145296;27;20037;-85
2022/08/25 13:03:42;;;;;;;4.85;1.95;;;;;;;;;;5133414;27;20087;-84
2022/08/25 13:06:35;;;;;;;5.50;2.30;;;33.80;47.00;;;;;;5138339;27;20033;-84
2022/08/25 13:09:57;;;;;;;5.60;2.50;;;34.10;45.80;;;;;;5137164;27;20493;-85
2022/08/25 13:13:04;;;;;;;7.50;2.20;;;33.60;46.00;;;;;;5137672;27;20030;-85
2022/08/25 13:16:14;;;;;;;4.18;1.92;;;34.70;45.90;;;;;;5148724;27;20042;-84
2022/08/25 13:19:04;;;;;;;3.97;1.95;;;34.20;45.10;;;;;;5142984;27;20041;-86
2022/08/25 13:21:49;;;;;;;4.97;2.40;;;;;;;;;;5138831;27;20058;-85
2022/08/25 13:24:38;;;;;;;4.15;2.13;;;34.20;44.30;;;;;;5130981;27;20033;-85
2022/08/25 13:27:28;;;;;;;4.85;2.30;;;33.50;50.50;;;;;;5141105;27;20077;-85
2022/08/25 13:30:39;;;;;;;5.32;2.17;;;33.40;53.80;;;;;;5122985;27;20452;-84
2022/08/25 13:33:24;;;;;;;5.97;2.13;;;;;;;;;;5131088;27;20034;-84
2022/08/25 13:39:24;;;;;;;6.35;2.00;;;34.00;55.40;;;;;;5123933;27;20502;-84
2022/08/25 13:42:15;;;;;;;4.47;2.13;;;33.40;55.20;;;;;;5131930;27;20103;-85
2022/08/25 13:45:00;;;;;;;6.00;2.08;;;;;;;;;;5130893;27;20037;-84
2022/08/25 13:47:45;;;;;;;7.30;2.10;;;34.00;43.60;;;;;;5123823;27;20038;-85
2022/08/25 13:50:36;;;;;;;4.18;2.08;;;33.80;47.60;;;;;;5131905;27;20095;-84
2022/08/25 13:53:23;;;;;;;3.33;2.08;;;34.00;44.20;;;;;;5131140;27;20087;-84
2022/08/25 13:56:09;;;;;;;3.35;1.80;;;;;;;;;;5110804;28;20046;-83
2022/08/25 13:58:54;;;;;;;4.13;1.98;;;33.90;44.80;;;;;;5116455;27;20076;-84
2022/08/25 14:01:45;;;;;;;3.53;2.33;;;34.00;44.30;;;;;;5131858;27;20091;-87
2022/08/25 14:04:33;;;;;;;6.07;2.40;;;;;;;;;;5114592;27;20168;-86
2022/08/25 14:07:18;;;;;;;5.82;2.50;;;;;;;;;;5112499;27;20034;-85
2022/08/25 14:10:10;;;;;;;3.67;2.10;;;34.20;45.70;;;;;;5127143;27;20095;-86
2022/08/25 14:13:08;;;;;;;6.75;2.63;;;34.40;44.80;;;;;;5137988;27;20034;-86
2022/08/25 14:15:53;;;;;;;3.90;2.25;;;;;;;;;;5137209;27;20284;-90
2022/08/25 14:18:38;;;;;;;5.20;2.40;;;;;;;;;;5129003;27;20110;-85
2022/08/25 14:21:29;;;;;;;4.13;2.53;;;34.20;44.10;;;;;;5128984;27;20111;-88
2022/08/25 14:24:18;;;;;;;5.47;2.50;;;34.00;44.80;;;;;;5124282;27;20126;-88
2022/08/25 14:27:03;;;;;;;4.13;2.40;;;;;;;;;;5123855;27;20628;-86
2022/08/25 14:29:48;;;;;;;6.80;2.40;;;;;;;;;;5103328;27;20039;-87
2022/08/25 14:32:33;;;;;;;5.13;2.50;;;;;;;;;;5127980;27;20106;-86
2022/08/25 14:35:17;;;;;;;4.93;2.45;;;34.00;47.00;;;;;;5106923;27;20099;-85
2022/08/25 14:38:09;;;;;;;4.35;2.63;;;34.50;44.90;;;;;;5135541;27;20046;-86
2022/08/25 14:40:54;;;;;;;3.70;1.83;;;;;;;;;;5135631;27;20116;-86
2022/08/25 14:43:38;;;;;;;4.60;2.40;;;;;;;;;;5120332;27;20039;-84
2022/08/25 14:46:26;;;;;;;6.78;2.90;;;34.00;46.10;;;;;;5136333;27;20058;-85
2022/08/25 14:49:15;;;;;;;5.07;2.50;;;33.90;45.20;;;;;;5134850;27;20551;-85
2022/08/25 14:52:11;;;;;;;4.63;2.50;;;33.90;44.90;;;;;;5129415;27;20517;-84
2022/08/25 14:54:56;;;;;;;5.93;2.47;;;;;;;;;;5135333;27;20066;-85
2022/08/25 14:57:41;;;;;;;5.93;3.15;;;;;;;;;;5135942;27;20406;-84
2022/08/25 15:00:26;;;;;;;5.65;2.50;;;;;;;;;;5135569;27;20049;-84
2022/08/25 15:03:14;;;;;;;5.38;2.42;;;33.40;45.40;;;;;;5135439;27;20042;-87
2022/08/25 15:06:00;;;;;;;4.53;2.42;;;33.40;45.00;;;;;;5131777;27;20038;-86
2022/08/25 15:11:51;;;;;;;7.75;2.78;;;33.10;45.80;;;;;;5135678;27;20061;-84
2022/08/25 15:14:38;;;;;;;5.45;2.60;;;;;;;;;;5120230;27;20042;-83
2022/08/25 15:17:23;;;;;;;3.88;2.40;;;;;;;;;;5132996;27;20158;-84
2022/08/25 15:20:08;;;;;;;7.13;2.50;;;;;;;;;;5120957;27;20485;-85
2022/08/25 15:22:53;;;;;;;5.60;2.63;;;;;;;;;;5150980;27;20037;-84
2022/08/25 15:25:46;;;;;;;5.97;2.55;;;32.70;47.10;;;;;;5145950;27;20114;-86
2022/08/25 15:28:30;;;;;;;7.03;2.55;;;;;;;;;;5134942;27;20034;-85
2022/08/25 15:31:16;;;;;;;6.13;2.80;;;32.70;47.00;;;;;;5142096;27;20037;-83
2022/08/25 15:34:01;;;;;;;5.00;2.90;;;;;;;;;;5141587;27;20041;-85
2022/08/25 15:36:45;;;;;;;4.80;2.65;;;;;;;;;;5138553;27;20049;-83